Time;durP1;ratioP1;P1;durP2;ratioP2;P2;SDS_P1;SDS_P2;PMS_P1;PMS_P2;Temp;Humidity;BMP_temperature;BMP_pressure;BME280_temperature;BME280_humidity;BME280_pressure;Samples;Min_cycle;Max_cycle;Signal;HPM_P1;HPM_P2
2022/01/19 00:01:08;;;;;;;14.37;9.17;;;5.40;99.90;;;;;;5058527;28;20444;-87
2022/01/19 00:03:33;;;;;;;19.10;10.83;;;5.40;99.90;;;;;;5040242;28;20185;-88
2022/01/19 00:05:59;;;;;;;26.80;10.67;;;5.40;99.90;;;;;;5040345;28;20260;-87
2022/01/19 00:08:26;;;;;;;21.60;10.43;;;5.40;99.90;;;;;;5041394;28;20228;-88
2022/01/19 00:10:52;;;;;;;21.20;10.83;;;5.40;99.90;;;;;;5058004;28;20223;-88
2022/01/19 00:13:18;;;;;;;19.40;10.87;;;5.40;99.90;;;;;;5041346;28;20510;-88
2022/01/19 00:15:44;;;;;;;19.40;9.60;;;5.40;99.90;;;;;;5042817;28;20188;-88
2022/01/19 00:18:10;;;;;;;18.20;10.00;;;5.40;99.90;;;;;;5036726;28;20416;-88
2022/01/19 00:20:36;;;;;;;16.63;10.00;;;5.40;99.90;;;;;;5036212;28;20487;-86
2022/01/19 00:23:03;;;;;;;22.87;9.60;;;5.40;99.90;;;;;;5036352;28;20277;-87
2022/01/19 00:25:30;;;;;;;19.30;9.70;;;5.30;99.90;;;;;;5036046;28;20240;-87
2022/01/19 00:27:56;;;;;;;18.57;8.40;;;5.40;99.90;;;;;;5036127;28;20420;-88
2022/01/19 00:30:21;;;;;;;19.90;10.87;;;5.40;99.90;;;;;;5036328;28;20428;-87
2022/01/19 00:32:47;;;;;;;17.77;9.53;;;5.30;99.90;;;;;;5035927;28;20227;-88
2022/01/19 00:35:13;;;;;;;19.70;10.40;;;5.30;99.90;;;;;;5036281;28;20241;-89
2022/01/19 00:37:40;;;;;;;16.13;9.37;;;5.30;99.90;;;;;;5035963;28;20220;-88
2022/01/19 00:40:08;;;;;;;16.27;9.40;;;5.30;99.90;;;;;;5036116;28;20545;-88
2022/01/19 00:42:34;;;;;;;18.83;9.20;;;5.30;99.90;;;;;;5036567;28;20420;-88
2022/01/19 00:44:59;;;;;;;16.43;8.83;;;5.20;99.90;;;;;;5035598;28;20435;-89
2022/01/19 00:47:25;;;;;;;19.70;10.20;;;5.20;99.90;;;;;;5036783;28;20192;-90
2022/01/19 00:49:50;;;;;;;16.90;8.97;;;5.20;99.90;;;;;;5054248;28;20209;-89
2022/01/19 00:52:16;;;;;;;13.00;8.70;;;5.20;99.90;;;;;;5036421;28;20190;-90
2022/01/19 00:54:41;;;;;;;14.87;7.70;;;5.10;99.90;;;;;;5036946;28;20180;-87
2022/01/19 00:57:08;;;;;;;17.20;9.47;;;5.10;99.90;;;;;;5035285;28;20201;-89
2022/01/19 00:59:34;;;;;;;20.23;9.00;;;5.10;99.90;;;;;;5034430;28;20766;-87
2022/01/19 01:02:01;;;;;;;15.70;8.80;;;5.10;99.90;;;;;;5052527;28;20424;-88
2022/01/19 01:04:27;;;;;;;15.70;9.67;;;5.10;99.90;;;;;;5038789;28;20481;-87
2022/01/19 01:06:53;;;;;;;18.73;8.40;;;5.10;99.90;;;;;;5034327;28;20416;-88
2022/01/19 01:09:19;;;;;;;18.43;9.50;;;5.10;99.90;;;;;;5052878;28;20501;-88
2022/01/19 01:11:59;;;;;;;15.60;8.20;;;5.10;99.90;;;;;;5054761;28;20404;-89
2022/01/19 01:18:18;;;;;;;16.57;9.67;;;5.10;99.90;;;;;;5052991;28;20507;-88
2022/01/19 01:20:04;;;;;;;15.97;8.13;;;5.10;99.90;;;;;;5067344;28;20955;-89
2022/01/19 01:22:29;;;;;;;15.73;9.30;;;5.10;99.90;;;;;;5055534;28;20427;-88
2022/01/19 01:24:55;;;;;;;16.00;8.60;;;5.10;99.90;;;;;;5056651;28;20845;-89
2022/01/19 01:27:20;;;;;;;14.57;8.30;;;5.00;99.90;;;;;;5075868;28;20696;-87
2022/01/19 01:29:46;;;;;;;13.20;7.77;;;5.00;99.90;;;;;;5074012;28;20208;-89
2022/01/19 01:32:12;;;;;;;17.03;8.63;;;5.00;99.90;;;;;;5074778;28;20173;-91
2022/01/19 01:34:37;;;;;;;15.37;8.40;;;5.00;99.90;;;;;;5055797;28;20582;-87
2022/01/19 01:37:03;;;;;;;16.80;9.77;;;5.00;99.90;;;;;;5073724;28;20185;-89
2022/01/19 01:39:29;;;;;;;14.90;8.60;;;3.00;99.90;;;;;;5055565;28;20653;-88
2022/01/19 01:41:54;;;;;;;20.43;10.20;;;4.90;99.90;;;;;;5055448;28;20505;-89
2022/01/19 01:44:20;;;;;;;20.93;10.30;;;5.00;99.90;;;;;;5055613;28;20184;-90
2022/01/19 01:46:50;;;;;;;15.80;8.70;;;4.90;99.90;;;;;;5073049;28;20621;-89
2022/01/19 01:49:24;;;;;;;15.03;8.00;;;5.00;99.90;;;;;;5055586;28;20207;-89
2022/01/19 01:54:33;;;;;;;14.00;8.57;;;4.90;99.90;;;;;;5074289;28;20472;-90
2022/01/19 01:56:59;;;;;;;14.53;9.40;;;4.90;99.90;;;;;;5056009;28;20786;-89
2022/01/19 01:59:24;;;;;;;16.23;7.93;;;4.80;99.90;;;;;;5055662;28;20175;-90
2022/01/19 02:01:50;;;;;;;18.07;8.40;;;4.90;99.90;;;;;;5055145;28;20173;-90
2022/01/19 02:04:15;;;;;;;18.33;9.20;;;4.80;99.90;;;;;;5076209;28;20169;-90
2022/01/19 02:09:32;;;;;;;14.87;8.27;;;4.90;99.90;;;;;;5077133;28;20246;-90
2022/01/19 02:22:54;;;;;;;18.20;9.40;;;4.80;99.90;;;;;;5076879;28;20415;-90
2022/01/19 02:25:26;;;;;;;15.37;9.17;;;4.80;99.90;;;;;;5076692;28;20429;-91
2022/01/19 02:41:41;;;;;;;16.90;7.50;;;4.60;99.90;;;;;;5076600;28;20443;-88
2022/01/19 02:44:10;;;;;;;18.10;9.10;;;4.70;99.90;;;;;;5076288;28;20454;-90
2022/01/19 02:49:21;;;;;;;18.57;8.93;;;4.70;99.90;;;;;;5076250;28;20570;-88
2022/01/19 02:51:53;;;;;;;16.30;8.80;;;4.60;99.90;;;;;;5076523;28;20426;-89
2022/01/19 02:54:21;;;;;;;20.47;8.87;;;4.60;99.90;;;;;;5058429;28;20419;-90
2022/01/19 02:56:51;;;;;;;16.93;9.10;;;4.60;99.90;;;;;;5076677;28;20412;-89
2022/01/19 02:59:36;;;;;;;16.23;8.07;;;4.60;99.90;;;;;;5058375;28;20471;-88
2022/01/19 03:10:15;;;;;;;18.87;8.53;;;4.50;99.90;;;;;;5075821;28;20465;-91
2022/01/19 03:12:40;;;;;;;17.33;7.63;;;4.50;99.90;;;;;;5075963;28;20902;-90
2022/01/19 03:15:10;;;;;;;15.07;7.50;;;4.50;99.90;;;;;;5057455;28;20549;-90
2022/01/19 03:17:36;;;;;;;20.53;10.23;;;4.50;99.90;;;;;;5057264;28;20201;-90
2022/01/19 03:20:03;;;;;;;16.77;8.10;;;4.50;99.90;;;;;;5057698;28;20510;-89
2022/01/19 03:22:36;;;;;;;22.80;8.40;;;4.40;99.90;;;;;;5057867;28;20549;-90
2022/01/19 03:25:02;;;;;;;14.83;8.77;;;4.40;99.90;;;;;;5057581;28;20412;-91
2022/01/19 03:27:28;;;;;;;19.03;8.60;;;4.40;99.90;;;;;;5075543;28;20514;-92
2022/01/19 03:29:54;;;;;;;15.13;7.67;;;4.40;99.90;;;;;;5057637;28;20546;-92
2022/01/19 03:32:19;;;;;;;19.37;9.50;;;4.40;99.90;;;;;;5057042;28;20179;-92
2022/01/19 03:34:45;;;;;;;12.57;7.47;;;4.30;99.90;;;;;;5057515;28;20173;-91
2022/01/19 03:37:11;;;;;;;14.37;8.40;;;4.40;99.90;;;;;;5057584;28;20173;-91
2022/01/19 03:39:37;;;;;;;18.03;7.63;;;4.40;99.90;;;;;;5057314;28;20180;-90
2022/01/19 03:42:03;;;;;;;15.50;8.03;;;4.40;99.90;;;;;;5075267;28;20407;-92
2022/01/19 03:44:29;;;;;;;19.53;8.80;;;4.40;99.90;;;;;;5057419;28;20502;-89
2022/01/19 03:46:57;;;;;;;21.57;8.27;;;4.30;99.90;;;;;;5074859;28;20501;-90
2022/01/19 03:49:25;;;;;;;18.73;8.50;;;4.40;99.90;;;;;;5074930;28;20191;-91
2022/01/19 03:51:58;;;;;;;18.73;8.50;;;4.40;99.90;;;;;;5074977;28;20431;-87
2022/01/19 03:54:25;;;;;;;17.83;8.47;;;4.30;99.90;;;;;;5075548;28;20443;-91
2022/01/19 03:56:51;;;;;;;20.10;9.20;;;4.30;99.90;;;;;;5074945;28;20412;-90
2022/01/19 03:59:17;;;;;;;15.27;8.13;;;4.20;99.90;;;;;;5074890;28;20449;-91
2022/01/19 04:01:42;;;;;;;19.40;9.80;;;4.30;99.90;;;;;;5075781;28;20173;-89
2022/01/19 04:07:08;;;;;;;21.40;8.77;;;4.30;99.90;;;;;;5093702;28;20221;-87
2022/01/19 04:09:27;;;;;;;16.43;7.70;;;4.20;99.90;;;;;;5092477;28;20493;-87
2022/01/19 04:11:54;;;;;;;21.67;8.07;;;4.30;99.90;;;;;;5062114;28;20433;-88
2022/01/19 04:14:22;;;;;;;18.57;8.80;;;4.30;99.90;;;;;;5056731;28;20419;-93
2022/01/19 04:16:50;;;;;;;20.97;8.13;;;4.30;99.90;;;;;;5074323;28;20418;-91
2022/01/19 04:19:23;;;;;;;15.13;8.80;;;4.30;99.90;;;;;;5056809;28;21103;-86
2022/01/19 04:21:53;;;;;;;16.93;7.90;;;4.30;99.90;;;;;;5074448;28;20758;-90
2022/01/19 04:24:19;;;;;;;14.90;7.60;;;4.20;99.90;;;;;;5074430;28;20430;-89
2022/01/19 04:26:48;;;;;;;21.13;7.23;;;4.30;99.90;;;;;;5055726;28;20412;-92
2022/01/19 04:29:14;;;;;;;16.23;7.67;;;4.30;99.90;;;;;;5074279;28;20208;-91
2022/01/19 04:31:39;;;;;;;13.03;7.17;;;4.20;99.90;;;;;;5056074;28;20450;-91
2022/01/19 04:34:06;;;;;;;25.63;9.13;;;4.30;99.90;;;;;;5074359;28;20903;-89
2022/01/19 04:43:49;;;;;;;14.60;8.10;;;4.20;99.90;;;;;;5074890;28;20440;-89
2022/01/19 05:04:00;;;;;;;23.50;8.30;;;4.10;99.90;;;;;;5074112;28;20422;-89
2022/01/19 05:06:26;;;;;;;16.17;8.90;;;4.10;99.90;;;;;;5073858;28;20423;-87
2022/01/19 05:09:06;;;;;;;18.80;8.67;;;4.10;99.90;;;;;;5073956;28;20466;-91
2022/01/19 05:14:17;;;;;;;18.80;9.83;;;4.10;99.90;;;;;;5074703;28;20406;-87
2022/01/19 05:16:42;;;;;;;13.50;8.20;;;4.10;99.90;;;;;;5056472;28;20419;-91
2022/01/19 05:19:08;;;;;;;17.33;9.20;;;4.20;99.90;;;;;;5056328;28;20262;-90
2022/01/19 05:21:33;;;;;;;16.60;8.63;;;4.20;99.90;;;;;;5074164;28;20218;-90
2022/01/19 05:24:04;;;;;;;14.40;8.90;;;4.20;99.90;;;;;;5055683;28;20179;-90
2022/01/19 05:26:31;;;;;;;16.13;9.60;;;4.20;99.90;;;;;;5055987;28;20173;-86
2022/01/19 05:28:57;;;;;;;15.60;8.67;;;4.10;99.90;;;;;;5073930;28;20470;-86
2022/01/19 05:31:23;;;;;;;19.53;9.50;;;4.10;99.90;;;;;;5055800;28;20419;-91
2022/01/19 05:33:48;;;;;;;13.20;8.10;;;4.20;99.90;;;;;;5056396;28;20855;-91
2022/01/19 05:36:14;;;;;;;26.37;10.50;;;4.10;99.90;;;;;;5057097;28;20200;-89
2022/01/19 05:38:39;;;;;;;19.83;8.03;;;4.10;99.90;;;;;;5059792;28;20177;-90
2022/01/19 05:41:05;;;;;;;19.60;9.70;;;4.20;99.90;;;;;;5078287;28;20185;-90
2022/01/19 05:43:30;;;;;;;19.73;8.77;;;4.20;99.90;;;;;;5078223;28;20169;-91
2022/01/19 05:45:56;;;;;;;18.27;9.30;;;4.10;99.90;;;;;;5059114;28;20180;-87
2022/01/19 05:48:21;;;;;;;25.10;10.50;;;4.10;99.90;;;;;;5077249;28;20204;-88
2022/01/19 05:50:47;;;;;;;21.33;10.47;;;4.10;99.90;;;;;;5059598;28;20195;-90
2022/01/19 05:53:13;;;;;;;19.17;9.83;;;4.20;99.90;;;;;;5076901;28;20219;-90
2022/01/19 05:55:38;;;;;;;18.63;9.07;;;4.10;99.90;;;;;;5077209;28;20244;-91
2022/01/19 05:58:04;;;;;;;17.13;9.00;;;4.10;99.90;;;;;;5077060;28;20251;-90
2022/01/19 06:00:30;;;;;;;17.90;9.97;;;4.20;99.90;;;;;;5076853;28;20165;-90
2022/01/19 06:02:55;;;;;;;23.67;8.60;;;4.20;99.90;;;;;;5059606;28;20582;-90
2022/01/19 06:05:21;;;;;;;19.13;9.37;;;4.20;99.90;;;;;;5077261;28;20906;-91
2022/01/19 06:07:48;;;;;;;21.37;9.57;;;4.20;99.90;;;;;;5077460;28;20169;-92
2022/01/19 06:13:17;;;;;;;23.23;11.20;;;4.30;99.90;;;;;;4996713;28;20504;-92
2022/01/19 06:15:45;;;;;;;20.30;10.10;;;4.20;99.90;;;;;;5043547;28;20462;-88
2022/01/19 06:18:12;;;;;;;22.30;11.47;;;4.20;99.90;;;;;;5076973;28;20407;-90
2022/01/19 06:20:38;;;;;;;20.17;11.53;;;4.30;99.90;;;;;;5059048;28;20478;-92
2022/01/19 06:23:04;;;;;;;23.77;12.37;;;4.30;99.90;;;;;;5059323;28;20425;-91
2022/01/19 06:25:29;;;;;;;19.07;11.30;;;4.30;99.90;;;;;;5077027;28;20415;-90
2022/01/19 06:27:55;;;;;;;21.53;13.10;;;4.30;99.90;;;;;;5076711;28;20181;-91
2022/01/19 06:30:20;;;;;;;27.90;14.20;;;4.30;99.90;;;;;;5076445;28;20231;-90
2022/01/19 06:32:46;;;;;;;23.10;14.90;;;4.30;99.90;;;;;;5059279;28;20189;-92
2022/01/19 06:35:12;;;;;;;26.73;12.20;;;4.30;99.90;;;;;;5059969;28;20215;-92
2022/01/19 06:37:37;;;;;;;22.80;12.63;;;4.30;99.90;;;;;;5060244;28;20196;-92
2022/01/19 06:40:05;;;;;;;23.13;11.60;;;4.30;99.90;;;;;;5058970;28;20172;-91
2022/01/19 06:42:32;;;;;;;18.37;10.50;;;4.30;99.90;;;;;;5059400;28;20645;-90
2022/01/19 06:44:57;;;;;;;21.67;11.47;;;4.30;99.90;;;;;;5076244;28;20504;-90
2022/01/19 06:47:23;;;;;;;32.73;13.47;;;4.30;99.90;;;;;;5076058;28;20231;-90
2022/01/19 06:49:49;;;;;;;24.23;11.17;;;4.40;99.90;;;;;;5075297;28;20251;-91
2022/01/19 06:52:14;;;;;;;25.43;11.03;;;4.30;99.90;;;;;;5059229;28;20603;-92
2022/01/19 06:54:40;;;;;;;21.90;12.20;;;4.40;99.90;;;;;;5076223;28;20190;-91
2022/01/19 06:57:05;;;;;;;22.93;11.30;;;4.40;99.90;;;;;;5058207;28;20181;-91
2022/01/19 06:59:31;;;;;;;24.07;12.43;;;4.40;99.90;;;;;;5058098;28;20177;-92
2022/01/19 07:01:56;;;;;;;19.77;11.20;;;4.40;99.90;;;;;;5075487;28;20168;-92
2022/01/19 07:04:22;;;;;;;21.57;11.83;;;4.40;99.90;;;;;;5057999;28;20178;-90
2022/01/19 07:06:47;;;;;;;23.30;12.80;;;4.30;99.90;;;;;;5076376;28;20165;-91
2022/01/19 07:09:13;;;;;;;28.00;12.13;;;4.40;99.90;;;;;;5058466;28;20208;-94
2022/01/19 07:11:38;;;;;;;28.60;14.50;;;4.40;99.90;;;;;;5058661;28;20178;-91
2022/01/19 07:14:05;;;;;;;34.93;15.63;;;4.50;99.90;;;;;;5059663;28;20271;-92
2022/01/19 07:16:31;;;;;;;32.27;14.77;;;4.50;99.90;;;;;;5075668;28;20172;-90
2022/01/19 07:18:57;;;;;;;30.77;15.73;;;4.50;99.90;;;;;;5058526;28;20459;-93
2022/01/19 07:21:22;;;;;;;39.77;16.00;;;4.50;99.90;;;;;;5058699;28;20176;-92
2022/01/19 07:23:48;;;;;;;33.00;17.30;;;4.60;99.90;;;;;;5076821;28;20552;-92
2022/01/19 07:26:13;;;;;;;34.50;18.67;;;4.60;99.90;;;;;;5077318;28;20275;-93
2022/01/19 07:28:39;;;;;;;41.87;21.23;;;4.60;99.90;;;;;;5060090;28;20300;-93
2022/01/19 07:31:04;;;;;;;42.97;17.80;;;4.60;99.90;;;;;;5078292;28;20325;-93
2022/01/19 07:33:30;;;;;;;31.03;15.70;;;4.60;99.90;;;;;;5077321;28;20248;-92
2022/01/19 07:35:56;;;;;;;35.47;18.93;;;4.70;99.90;;;;;;5059371;28;20185;-91
2022/01/19 07:38:23;;;;;;;34.23;16.43;;;4.70;99.90;;;;;;5058558;28;20424;-92
2022/01/19 07:40:49;;;;;;;34.40;17.73;;;4.70;99.90;;;;;;5077526;28;20180;-92
2022/01/19 07:43:15;;;;;;;34.10;17.80;;;4.70;99.90;;;;;;5057941;28;21045;-88
2022/01/19 07:45:41;;;;;;;35.50;18.03;;;4.70;99.90;;;;;;5074092;28;20438;-87
2022/01/19 07:48:06;;;;;;;42.63;18.20;;;4.70;99.90;;;;;;5074512;28;20185;-87
2022/01/19 07:50:32;;;;;;;40.67;18.60;;;4.70;99.90;;;;;;5058105;28;20262;-92
2022/01/19 07:53:00;;;;;;;36.37;18.37;;;4.70;99.90;;;;;;5076239;28;20584;-89
2022/01/19 07:55:26;;;;;;;29.50;15.37;;;4.70;99.90;;;;;;5075807;28;20176;-88
2022/01/19 07:57:52;;;;;;;34.97;16.90;;;4.70;99.90;;;;;;5075131;28;20495;-92
2022/01/19 08:00:18;;;;;;;40.57;18.00;;;4.70;99.90;;;;;;5076933;28;20170;-92
2022/01/19 08:02:45;;;;;;;33.87;18.50;;;4.70;99.90;;;;;;5059226;28;20215;-92
2022/01/19 08:05:10;;;;;;;44.47;20.10;;;4.70;99.90;;;;;;5059372;28;20431;-92
2022/01/19 08:07:36;;;;;;;37.60;17.27;;;4.70;99.90;;;;;;5076548;28;20403;-91
2022/01/19 08:10:03;;;;;;;30.40;17.33;;;4.80;99.90;;;;;;5078459;28;20537;-91
2022/01/19 08:12:29;;;;;;;38.60;18.50;;;4.80;99.90;;;;;;5062587;28;20215;-92
2022/01/19 08:14:54;;;;;;;38.40;17.77;;;4.80;99.90;;;;;;5058759;28;20419;-91
2022/01/19 08:17:20;;;;;;;34.83;18.80;;;4.70;99.90;;;;;;5058171;28;20226;-91
2022/01/19 08:19:47;;;;;;;35.27;17.40;;;4.70;99.90;;;;;;5074556;28;20664;-92
2022/01/19 08:22:13;;;;;;;41.43;19.70;;;4.70;99.90;;;;;;5074107;28;20193;-88
2022/01/19 08:24:38;;;;;;;38.50;19.47;;;4.70;99.90;;;;;;5056076;28;20432;-89
2022/01/19 08:27:04;;;;;;;44.60;19.27;;;4.80;99.90;;;;;;5055962;28;20537;-87
2022/01/19 08:29:30;;;;;;;35.00;17.23;;;4.70;99.90;;;;;;5075138;28;20223;-86
2022/01/19 08:31:55;;;;;;;42.40;22.20;;;4.70;99.90;;;;;;5055860;28;20180;-87
2022/01/19 08:34:21;;;;;;;42.37;20.37;;;4.70;99.90;;;;;;5073677;28;20173;-86
2022/01/19 08:36:47;;;;;;;41.73;22.00;;;4.70;99.90;;;;;;5056498;28;20169;-90
2022/01/19 08:39:13;;;;;;;46.00;19.97;;;4.70;99.90;;;;;;5075061;28;20426;-89
2022/01/19 08:41:38;;;;;;;38.10;18.63;;;4.70;99.90;;;;;;5056760;28;20441;-91
2022/01/19 08:44:04;;;;;;;40.23;20.90;;;4.70;99.90;;;;;;5074472;28;20179;-90
2022/01/19 08:46:30;;;;;;;48.17;20.00;;;4.60;99.90;;;;;;5057479;28;20628;-92
2022/01/19 08:48:56;;;;;;;36.53;18.80;;;4.70;99.90;;;;;;5060265;28;20216;-90
2022/01/19 08:51:21;;;;;;;40.73;19.10;;;4.70;99.90;;;;;;5059370;28;20415;-90
2022/01/19 08:53:47;;;;;;;43.10;20.53;;;4.60;99.90;;;;;;5056861;28;20165;-89
2022/01/19 08:56:12;;;;;;;38.70;21.00;;;4.60;99.90;;;;;;5056543;28;20187;-90
2022/01/19 08:58:45;;;;;;;48.23;20.13;;;4.70;99.90;;;;;;5067936;28;20175;-92
2022/01/19 09:01:11;;;;;;;38.93;21.77;;;4.70;99.90;;;;;;5059486;28;20725;-90
2022/01/19 09:03:36;;;;;;;42.53;19.90;;;4.60;99.90;;;;;;5073876;28;20449;-90
2022/01/19 09:06:02;;;;;;;39.87;20.60;;;4.60;99.90;;;;;;5056276;28;20180;-88
2022/01/19 09:08:30;;;;;;;45.80;20.97;;;4.70;99.90;;;;;;5058689;28;20208;-89
2022/01/19 09:10:58;;;;;;;45.90;21.47;;;4.70;99.90;;;;;;5075799;28;20164;-89
2022/01/19 09:13:24;;;;;;;41.33;20.60;;;4.60;99.90;;;;;;5058926;28;20414;-88
2022/01/19 09:15:50;;;;;;;51.63;22.63;;;4.70;99.90;;;;;;5064100;28;20446;-91
2022/01/19 09:18:16;;;;;;;37.70;20.30;;;4.80;99.90;;;;;;5065333;28;20407;-88
2022/01/19 09:20:41;;;;;;;45.77;20.97;;;4.70;99.90;;;;;;5059803;28;20442;-89
2022/01/19 09:23:07;;;;;;;47.23;22.10;;;4.70;99.90;;;;;;5059618;28;20541;-88
2022/01/19 09:25:33;;;;;;;43.83;20.53;;;4.80;99.90;;;;;;5059773;28;20535;-88
2022/01/19 09:27:59;;;;;;;37.97;20.50;;;4.70;99.90;;;;;;5071463;28;20550;-88
2022/01/19 09:30:25;;;;;;;42.63;20.63;;;4.80;99.90;;;;;;5058394;28;20574;-90
2022/01/19 09:33:09;;;;;;;42.90;21.37;;;4.80;99.90;;;;;;5039623;28;20512;-88
2022/01/19 09:38:25;;;;;;;46.03;21.77;;;4.80;99.90;;;;;;5057423;28;20419;-88
2022/01/19 09:40:50;;;;;;;48.43;24.50;;;4.80;99.90;;;;;;5039999;28;20430;-88
2022/01/19 09:43:17;;;;;;;38.97;19.50;;;4.70;99.90;;;;;;5057491;28;20409;-90
2022/01/19 09:45:43;;;;;;;50.63;23.73;;;4.70;99.90;;;;;;5039886;28;20622;-90
2022/01/19 09:48:09;;;;;;;39.00;20.70;;;4.70;99.90;;;;;;5039998;28;20416;-89
2022/01/19 09:50:35;;;;;;;42.60;23.20;;;4.60;99.90;;;;;;5057985;28;20833;-92
2022/01/19 09:53:07;;;;;;;43.00;21.53;;;4.60;99.90;;;;;;5040653;28;20176;-87
2022/01/19 09:55:35;;;;;;;45.87;23.30;;;4.60;99.90;;;;;;5056574;28;20482;-88
2022/01/19 09:58:00;;;;;;;45.57;22.30;;;4.60;99.90;;;;;;5038776;28;20948;-86
2022/01/19 10:00:26;;;;;;;36.97;19.67;;;4.70;99.90;;;;;;5055899;28;20490;-86
2022/01/19 10:03:14;;;;;;;41.63;22.70;;;4.70;99.90;;;;;;5056448;28;20251;-86
2022/01/19 10:06:03;;;;;;;39.00;20.03;;;4.70;99.90;;;;;;5057293;28;20408;-87
2022/01/19 10:08:35;;;;;;;46.43;23.87;;;4.80;99.90;;;;;;5067322;28;20416;-88
2022/01/19 10:11:05;;;;;;;45.10;22.10;;;4.70;99.90;;;;;;5056842;28;20431;-87
2022/01/19 10:19:17;;;;;;;45.27;23.40;;;4.70;99.90;;;;;;5056121;28;20539;-86
2022/01/19 10:22:03;;;;;;;44.20;24.70;;;4.70;99.90;;;;;;5037657;28;20830;-87
2022/01/19 10:24:34;;;;;;;40.30;20.70;;;4.70;99.90;;;;;;5036915;28;20431;-87
2022/01/19 10:27:19;;;;;;;42.30;21.67;;;4.70;99.90;;;;;;5055777;28;20417;-86
2022/01/19 10:29:46;;;;;;;37.17;20.53;;;4.70;99.90;;;;;;5037304;28;20479;-87
2022/01/19 10:32:12;;;;;;;38.10;22.47;;;4.80;99.90;;;;;;5037847;28;20947;-87
2022/01/19 10:34:37;;;;;;;40.47;22.20;;;4.70;99.90;;;;;;5055540;28;20420;-86
2022/01/19 10:37:05;;;;;;;34.70;19.83;;;4.80;99.90;;;;;;5037625;28;20403;-87
2022/01/19 10:39:46;;;;;;;39.93;19.20;;;4.80;99.90;;;;;;5055360;28;20637;-89
2022/01/19 10:42:15;;;;;;;39.53;20.07;;;4.70;99.90;;;;;;5055324;28;20436;-87
2022/01/19 10:44:45;;;;;;;36.83;19.53;;;4.70;99.90;;;;;;5037138;28;20428;-87
2022/01/19 10:47:11;;;;;;;33.13;18.40;;;4.70;99.90;;;;;;5055447;28;20446;-87
2022/01/19 10:49:57;;;;;;;34.03;18.73;;;4.70;99.90;;;;;;5038756;28;20577;-87
2022/01/19 10:52:37;;;;;;;35.00;17.77;;;4.80;99.90;;;;;;5037536;28;20418;-87
2022/01/19 10:55:06;;;;;;;28.90;16.73;;;4.70;99.90;;;;;;5055395;28;20503;-87
2022/01/19 10:57:34;;;;;;;40.07;17.40;;;4.70;99.90;;;;;;5055061;28;20412;-87
2022/01/19 11:00:36;;;;;;;35.03;15.67;;;4.70;99.90;;;;;;5036868;28;20428;-87
2022/01/19 11:03:23;;;;;;;33.20;17.40;;;4.70;99.90;;;;;;5013199;28;20465;-86
2022/01/19 11:05:51;;;;;;;27.37;15.83;;;4.70;99.90;;;;;;5055029;28;20450;-87
2022/01/19 11:08:19;;;;;;;36.27;17.60;;;4.60;99.90;;;;;;5054926;28;20411;-87
2022/01/19 11:10:49;;;;;;;26.70;14.17;;;4.50;99.90;;;;;;5037386;28;20424;-87
2022/01/19 11:13:28;;;;;;;32.50;17.97;;;4.50;99.90;;;;;;5037665;28;20420;-87
2022/01/19 11:15:55;;;;;;;29.20;16.27;;;4.40;99.90;;;;;;5054625;28;20500;-85
2022/01/19 11:18:22;;;;;;;35.23;18.27;;;4.40;99.90;;;;;;5054458;28;20842;-87
2022/01/19 11:20:49;;;;;;;29.27;17.37;;;4.50;99.90;;;;;;5037022;28;20428;-86
2022/01/19 11:23:33;;;;;;;27.57;15.43;;;4.50;99.90;;;;;;5036771;28;20420;-87
2022/01/19 11:26:09;;;;;;;26.50;16.30;;;4.50;99.90;;;;;;5037044;28;20424;-87
2022/01/19 11:28:42;;;;;;;38.20;18.80;;;4.40;99.90;;;;;;5036657;28;20471;-87
2022/01/19 11:31:35;;;;;;;27.30;14.30;;;4.30;99.90;;;;;;5054126;28;20424;-87
2022/01/19 11:34:01;;;;;;;27.47;16.17;;;4.30;99.90;;;;;;5036221;28;20427;-87
2022/01/19 11:36:33;;;;;;;27.00;17.27;;;4.30;99.90;;;;;;5054124;28;20431;-87
2022/01/19 11:39:19;;;;;;;27.30;15.27;;;4.30;99.90;;;;;;5036508;28;20174;-86
2022/01/19 11:41:50;;;;;;;29.30;16.07;;;4.40;99.90;;;;;;5054219;28;20420;-87
2022/01/19 11:44:28;;;;;;;25.93;16.30;;;4.40;99.90;;;;;;5054112;28;20461;-88
2022/01/19 11:46:56;;;;;;;29.80;14.47;;;4.30;99.90;;;;;;5036228;28;20447;-86
2022/01/19 11:49:45;;;;;;;30.37;15.20;;;4.30;99.90;;;;;;5053992;28;20468;-88
2022/01/19 11:52:10;;;;;;;31.33;15.83;;;4.10;99.90;;;;;;5054745;28;20408;-93
2022/01/19 11:54:36;;;;;;;31.27;19.50;;;4.10;99.90;;;;;;5018075;28;20418;-91
2022/01/19 11:57:06;;;;;;;26.90;15.87;;;4.20;99.90;;;;;;5017147;28;20171;-89
2022/01/19 11:59:47;;;;;;;28.03;15.40;;;4.20;99.90;;;;;;5033869;28;20630;-88
2022/01/19 12:02:24;;;;;;;35.77;17.00;;;4.20;99.90;;;;;;5034798;28;20409;-91
2022/01/19 12:04:58;;;;;;;32.77;17.10;;;4.20;99.90;;;;;;5017003;28;20570;-90
2022/01/19 12:07:41;;;;;;;28.07;15.50;;;4.20;99.90;;;;;;5034177;28;20401;-89
2022/01/19 12:10:13;;;;;;;28.57;16.60;;;4.10;99.90;;;;;;5016206;28;20468;-89
2022/01/19 12:12:55;;;;;;;27.20;15.93;;;4.10;99.90;;;;;;5017414;28;20470;-90
2022/01/19 12:15:54;;;;;;;31.50;18.30;;;4.20;99.90;;;;;;5017240;28;20423;-88
2022/01/19 12:18:47;;;;;;;30.03;17.03;;;4.20;99.90;;;;;;5035120;28;20448;-89
2022/01/19 12:21:22;;;;;;;25.93;14.70;;;4.20;99.90;;;;;;5035333;28;20432;-89
2022/01/19 12:23:49;;;;;;;28.40;16.73;;;4.30;99.90;;;;;;5060847;28;20509;-89
2022/01/19 12:26:15;;;;;;;36.00;20.00;;;4.20;99.90;;;;;;5067019;28;20433;-88
2022/01/19 12:28:50;;;;;;;30.40;16.23;;;4.10;99.90;;;;;;5062145;28;20458;-87
2022/01/19 12:31:24;;;;;;;34.70;19.30;;;4.20;99.90;;;;;;5059220;28;20451;-88
2022/01/19 12:34:02;;;;;;;30.00;15.50;;;4.20;99.90;;;;;;5044344;28;20938;-88
2022/01/19 12:36:47;;;;;;;32.33;17.80;;;4.20;99.90;;;;;;5054962;28;20522;-83
2022/01/19 12:39:24;;;;;;;31.30;16.93;;;4.20;99.90;;;;;;5053983;28;20423;-84
2022/01/19 12:42:14;;;;;;;28.33;17.07;;;4.20;99.90;;;;;;5072701;28;20414;-83
2022/01/19 12:45:02;;;;;;;31.10;18.13;;;4.10;99.90;;;;;;5054545;28;20770;-84
2022/01/19 12:47:31;;;;;;;29.30;16.43;;;4.20;99.90;;;;;;5071483;28;20423;-84
2022/01/19 12:50:08;;;;;;;35.17;19.67;;;4.10;99.90;;;;;;5054740;28;20537;-83
2022/01/19 12:52:46;;;;;;;31.03;17.20;;;4.10;99.90;;;;;;5054828;28;20742;-84
2022/01/19 12:55:17;;;;;;;31.10;18.60;;;4.10;99.90;;;;;;5072802;28;20420;-83
2022/01/19 12:57:43;;;;;;;28.83;18.03;;;4.20;99.90;;;;;;5072867;28;20422;-84
2022/01/19 13:00:12;;;;;;;33.80;19.00;;;4.10;99.90;;;;;;5054619;28;20439;-83
2022/01/19 13:02:57;;;;;;;;;;;;;;;;;;;;;
2022/01/19 13:05:28;;;;;;;32.87;17.60;;;4.20;99.90;;;;;;5056849;28;20422;-85
2022/01/19 13:07:59;;;;;;;33.60;19.70;;;4.10;99.90;;;;;;5060058;28;20435;-85
2022/01/19 13:15:43;;;;;;;40.17;21.87;;;4.10;99.90;;;;;;5059542;28;20919;-83
2022/01/19 13:18:10;;;;;;;33.00;19.20;;;4.10;99.90;;;;;;5040567;28;20427;-89
2022/01/19 13:20:50;;;;;;;31.03;18.30;;;4.10;99.90;;;;;;5053284;28;20862;-89
2022/01/19 13:23:18;;;;;;;31.57;17.90;;;4.10;99.90;;;;;;5035623;28;21213;-91
2022/01/19 13:25:53;;;;;;;33.97;20.00;;;4.10;99.90;;;;;;5022570;28;20916;-88
2022/01/19 13:28:25;;;;;;;32.83;20.60;;;4.10;99.90;;;;;;5023438;28;20421;-86
2022/01/19 13:30:51;;;;;;;32.33;18.33;;;4.10;99.90;;;;;;5011789;28;21226;-89
2022/01/19 13:33:19;;;;;;;32.40;16.13;;;4.10;99.90;;;;;;5039156;28;20515;-89
2022/01/19 13:35:45;;;;;;;31.93;17.70;;;4.20;99.90;;;;;;5006825;28;20652;-90
2022/01/19 13:38:12;;;;;;;35.43;18.97;;;4.20;99.90;;;;;;5016216;28;20516;-90
2022/01/19 13:40:38;;;;;;;32.87;17.27;;;4.20;99.90;;;;;;5018572;28;20178;-90
2022/01/19 13:43:08;;;;;;;33.87;19.83;;;4.20;99.90;;;;;;5015570;28;20424;-90
2022/01/19 13:50:50;;;;;;;33.97;18.67;;;4.30;99.90;;;;;;5039170;28;20509;-89
2022/01/19 13:53:37;;;;;;;36.13;20.83;;;4.30;99.90;;;;;;5026297;28;20415;-89
2022/01/19 13:56:06;;;;;;;36.93;20.20;;;4.30;99.90;;;;;;5038348;28;20424;-89
2022/01/19 13:58:46;;;;;;;30.43;19.10;;;4.30;99.90;;;;;;5046904;28;20413;-89
2022/01/19 14:01:19;;;;;;;36.17;20.33;;;4.30;99.90;;;;;;5040116;28;20416;-87
2022/01/19 14:03:55;;;;;;;36.30;19.83;;;4.40;99.90;;;;;;5049754;28;20821;-89
2022/01/19 14:06:26;;;;;;;36.53;21.50;;;4.30;99.90;;;;;;5045903;28;20420;-90
2022/01/19 14:09:09;;;;;;;36.07;19.70;;;4.40;99.90;;;;;;5032661;28;20455;-91
2022/01/19 14:11:43;;;;;;;29.37;18.10;;;4.40;99.90;;;;;;5036720;28;20426;-89
2022/01/19 14:14:25;;;;;;;34.93;19.60;;;4.40;99.90;;;;;;5026137;28;20495;-89
2022/01/19 14:16:53;;;;;;;32.60;21.13;;;4.40;99.90;;;;;;5042074;28;20469;-90
2022/01/19 14:19:24;;;;;;;33.97;18.27;;;4.50;99.90;;;;;;5031480;28;20562;-88
2022/01/19 14:22:04;;;;;;;37.03;20.80;;;4.50;99.90;;;;;;5041193;28;20425;-87
2022/01/19 14:24:44;;;;;;;32.90;19.40;;;4.50;99.90;;;;;;5019505;28;20432;-87
2022/01/19 14:27:36;;;;;;;32.70;18.50;;;4.50;99.90;;;;;;5038446;28;20436;-88